Time;durP1;ratioP1;P1;durP2;ratioP2;P2;SDS_P1;SDS_P2;PMS_P1;PMS_P2;Temp;Humidity;BMP_temperature;BMP_pressure;BME280_temperature;BME280_humidity;BME280_pressure;Samples;Min_cycle;Max_cycle;Signal;HPM_P1;HPM_P2
2022/07/20 00:02:21;;;;;;;4.47;2.08;;;;;;;21.83;72.69;94927.78;5036746;28;20044;-93
2022/07/20 00:04:50;;;;;;;6.07;1.90;;;;;;;21.98;71.16;94929.84;5020025;28;20025;-92
2022/07/20 00:07:18;;;;;;;2.30;1.65;;;;;;;22.20;69.12;94937.84;5035777;28;20080;-91
2022/07/20 00:12:31;;;;;;;7.72;2.10;;;;;;;22.09;73.35;94942.81;5036683;28;20531;-91
2022/07/20 00:14:56;;;;;;;3.83;2.08;;;;;;;22.13;71.41;94946.38;5036516;28;20060;-92
2022/07/20 00:17:22;;;;;;;2.47;1.90;;;;;;;22.21;71.22;94945.53;5036607;28;20111;-92
2022/07/20 00:19:47;;;;;;;4.20;2.20;;;;;;;22.14;69.29;94940.72;5036840;28;20038;-93
2022/07/20 00:22:13;;;;;;;4.07;1.83;;;;;;;22.07;68.87;94937.78;5036522;28;20323;-92
2022/07/20 00:24:38;;;;;;;7.30;2.00;;;;;;;21.99;70.49;94942.09;5036402;28;20113;-91
2022/07/20 00:27:03;;;;;;;6.57;2.30;;;;;;;21.78;71.93;94936.75;5035216;28;20060;-90
2022/07/20 00:29:29;;;;;;;5.28;2.33;;;;;;;21.46;76.54;94928.31;5021533;28;20072;-90
2022/07/20 00:31:54;;;;;;;2.83;2.10;;;;;;;21.63;74.78;94926.63;5038962;28;20076;-92
2022/07/20 00:34:20;;;;;;;2.58;2.00;;;;;;;21.75;73.14;94924.88;5040166;28;20442;-92
2022/07/20 00:36:46;;;;;;;3.03;1.77;;;;;;;21.67;74.89;94938.25;5039479;28;20029;-92
2022/07/20 00:39:11;;;;;;;7.97;1.85;;;;;;;21.60;74.92;94930.75;5040046;28;20040;-92
2022/07/20 00:41:37;;;;;;;8.20;2.17;;;;;;;21.52;74.77;94929.69;5038835;28;20033;-92
2022/07/20 00:44:04;;;;;;;4.93;2.00;;;;;;;21.41;76.25;94939.16;5022494;28;20033;-91
2022/07/20 00:46:32;;;;;;;4.32;2.50;;;;;;;21.39;74.50;94930.72;5038680;28;20109;-91
2022/07/20 00:48:58;;;;;;;2.83;1.90;;;;;;;21.27;77.25;94932.19;5022377;28;20033;-91
2022/07/20 00:51:23;;;;;;;3.22;2.10;;;;;;;21.31;74.89;94932.34;5038551;28;20393;-90
2022/07/20 00:53:49;;;;;;;5.93;2.30;;;;;;;21.28;74.86;94930.28;5022255;28;20039;-91
2022/07/20 00:56:16;;;;;;;8.52;2.30;;;;;;;21.26;75.45;94933.28;5021688;28;20040;-92
2022/07/20 00:58:41;;;;;;;2.97;1.80;;;;;;;21.39;74.68;94923.50;5022251;28;20438;-91
2022/07/20 01:01:07;;;;;;;3.33;1.80;;;;;;;21.43;74.68;94918.31;5038497;28;20033;-92
2022/07/20 01:03:33;;;;;;;4.20;2.03;;;;;;;21.46;73.55;94930.97;5038563;28;20033;-92
2022/07/20 01:05:58;;;;;;;3.75;2.10;;;;;;;21.36;75.32;94924.13;5038752;28;20087;-91
2022/07/20 01:08:25;;;;;;;7.28;2.20;;;;;;;21.25;75.28;94926.41;5038342;28;20405;-92
2022/07/20 01:10:50;;;;;;;3.47;2.08;;;;;;;21.14;78.69;94925.19;5022383;28;20033;-93
2022/07/20 01:13:16;;;;;;;3.67;1.85;;;;;;;21.25;78.43;94922.94;5038358;28;20033;-93
2022/07/20 01:15:43;;;;;;;2.90;1.92;;;;;;;20.92;79.87;94915.59;5038099;28;20048;-90
2022/07/20 01:18:09;;;;;;;3.05;2.10;;;;;;;20.84;79.34;94922.50;5038254;28;20393;-91
2022/07/20 01:20:35;;;;;;;2.78;2.10;;;;;;;20.68;80.89;94920.34;5038551;28;20033;-91
2022/07/20 01:23:01;;;;;;;3.63;2.00;;;;;;;20.63;83.60;94921.28;5037945;28;20044;-90
2022/07/20 01:25:26;;;;;;;3.40;1.80;;;;;;;20.66;81.31;94924.41;5037867;28;20025;-91
2022/07/20 01:27:55;;;;;;;3.80;2.13;;;;;;;20.56;83.89;94923.66;5021902;28;20449;-91
2022/07/20 01:30:21;;;;;;;4.47;1.77;;;;;;;20.70;81.65;94917.34;5037970;28;20040;-92
2022/07/20 01:32:46;;;;;;;8.02;2.30;;;;;;;20.73;80.85;94924.69;5038031;28;20033;-92
2022/07/20 01:35:12;;;;;;;5.03;1.90;;;;;;;20.83;79.83;94923.59;5037766;28;20037;-90
2022/07/20 01:37:40;;;;;;;2.28;1.73;;;;;;;21.00;77.58;94915.53;5038105;28;20043;-91
2022/07/20 01:40:06;;;;;;;7.68;2.55;;;;;;;20.87;79.11;94919.19;5037201;28;20116;-91
2022/07/20 01:42:32;;;;;;;4.25;2.35;;;;;;;20.73;82.92;94920.16;5037619;28;20044;-91
2022/07/20 01:44:57;;;;;;;7.90;2.42;;;;;;;20.67;80.64;94924.09;5021259;28;20025;-89
2022/07/20 01:47:23;;;;;;;3.20;2.08;;;;;;;20.75;79.74;94923.28;5018124;28;20034;-92
2022/07/20 01:49:51;;;;;;;5.10;2.08;;;;;;;20.78;80.24;94921.88;5017648;28;20029;-91
2022/07/20 01:52:16;;;;;;;2.70;1.80;;;;;;;20.93;79.49;94920.56;5017978;28;20037;-91
2022/07/20 01:54:42;;;;;;;4.18;1.90;;;;;;;20.98;77.25;94916.97;5017520;28;20033;-91
2022/07/20 01:57:07;;;;;;;3.45;2.20;;;;;;;20.87;78.32;94920.00;5017563;28;20034;-91
2022/07/20 01:59:33;;;;;;;3.58;1.85;;;;;;;20.92;79.49;94923.56;5001757;28;20124;-92
2022/07/20 02:02:10;;;;;;;3.88;1.95;;;;;;;20.71;82.93;94925.03;5001404;28;20351;-92
2022/07/20 02:04:45;;;;;;;;;;;;;;;;;;;;;
2022/07/20 02:07:14;;;;;;;4.93;2.10;;;;;;;20.90;79.23;94923.88;5017393;28;20032;-92
2022/07/20 02:10:02;;;;;;;5.60;1.90;;;;;;;20.81;79.93;94925.81;5017417;28;20030;-92
2022/07/20 02:12:27;;;;;;;5.05;2.05;;;;;;;20.86;79.63;94921.06;5017823;28;20108;-91
2022/07/20 02:14:53;;;;;;;3.17;1.92;;;;;;;20.95;78.49;94912.28;5017280;28;20136;-91
2022/07/20 02:17:18;;;;;;;14.20;2.83;;;;;;;20.66;80.20;94919.09;5001454;28;20022;-91
2022/07/20 02:19:44;;;;;;;6.20;2.30;;;;;;;20.69;80.21;94918.44;5017789;28;20026;-92
2022/07/20 02:22:09;;;;;;;4.88;2.28;;;;;;;20.71;78.57;94925.03;5001085;28;20037;-92
2022/07/20 02:24:34;;;;;;;5.05;2.25;;;;;;;20.55;81.32;94918.66;5001096;28;20025;-92
2022/07/20 02:27:00;;;;;;;6.18;2.10;;;;;;;20.51;81.15;94912.38;5001205;28;20379;-91
2022/07/20 02:29:25;;;;;;;3.38;1.98;;;;;;;20.53;81.18;94915.53;5017050;28;20033;-93
2022/07/20 02:31:53;;;;;;;5.07;2.05;;;;;;;20.50;80.89;94908.94;5001145;28;20030;-91
2022/07/20 02:34:21;;;;;;;3.00;2.00;;;;;;;20.62;79.70;94905.63;5016987;28;20037;-92
2022/07/20 02:36:46;;;;;;;3.65;2.10;;;;;;;20.69;79.99;94911.25;5000643;28;20029;-92
2022/07/20 02:39:12;;;;;;;3.17;2.15;;;;;;;20.45;81.30;94909.13;5016883;28;20132;-91
2022/07/20 02:41:37;;;;;;;4.30;2.30;;;;;;;20.51;80.22;94905.19;5000670;28;20112;-91
2022/07/20 02:44:08;;;;;;;4.82;2.00;;;;;;;20.53;80.72;94907.53;5000763;28;20025;-92
2022/07/20 02:46:44;;;;;;;;;;;;;;;;;;;;;
2022/07/20 02:49:09;;;;;;;6.28;2.10;;;;;;;20.13;85.51;94909.34;5016819;28;20018;-92
2022/07/20 02:51:37;;;;;;;4.05;2.30;;;;;;;20.07;85.18;94907.91;5016063;28;20418;-91
2022/07/20 02:54:03;;;;;;;5.63;2.00;;;;;;;19.96;86.63;94907.47;5016294;28;20432;-91
2022/07/20 02:56:28;;;;;;;3.88;1.80;;;;;;;20.07;84.27;94905.25;5016401;28;20030;-92
2022/07/20 02:58:54;;;;;;;3.75;2.13;;;;;;;20.00;86.20;94907.63;5016748;28;20382;-91
2022/07/20 03:01:19;;;;;;;4.13;2.33;;;;;;;19.95;86.21;94911.22;5000308;28;20029;-91
2022/07/20 03:03:44;;;;;;;5.20;1.88;;;;;;;20.02;85.39;94903.56;5016871;28;20060;-90
2022/07/20 03:06:10;;;;;;;3.40;1.83;;;;;;;20.13;83.52;94911.19;5016580;28;20030;-92
2022/07/20 03:08:35;;;;;;;8.95;2.85;;;;;;;19.98;86.21;94917.78;5016613;28;20029;-91
2022/07/20 03:11:01;;;;;;;3.30;2.03;;;;;;;20.01;84.97;94915.31;5016481;28;20030;-91
2022/07/20 03:13:30;;;;;;;4.03;2.38;;;;;;;19.99;85.04;94911.38;5032949;28;20041;-91
2022/07/20 03:15:55;;;;;;;3.72;2.08;;;;;;;20.00;85.26;94918.25;5000235;28;20037;-92
2022/07/20 03:18:20;;;;;;;4.25;2.03;;;;;;;20.06;84.72;94919.66;5016365;28;20029;-91
2022/07/20 03:20:46;;;;;;;4.13;2.15;;;;;;;20.12;84.55;94921.06;5032680;28;20033;-91
2022/07/20 03:23:13;;;;;;;3.63;2.15;;;;;;;20.16;84.18;94911.34;5016530;28;20033;-90
2022/07/20 03:25:38;;;;;;;5.75;2.38;;;;;;;20.23;82.88;94912.75;5035112;28;20031;-92
2022/07/20 03:28:03;;;;;;;3.22;2.00;;;;;;;20.08;88.25;94919.34;5036216;28;20489;-91
2022/07/20 03:30:32;;;;;;;4.70;2.95;;;;;;;20.12;88.57;94928.25;5036201;28;20029;-91
2022/07/20 03:32:58;;;;;;;3.20;1.70;;;;;;;20.18;85.74;94917.16;5035881;28;20438;-92
2022/07/20 03:35:25;;;;;;;5.57;1.90;;;;;;;20.09;87.40;94924.38;5035712;28;20029;-91
2022/07/20 03:37:51;;;;;;;3.10;2.08;;;;;;;20.05;85.70;94920.75;5035738;28;20472;-91
2022/07/20 03:40:16;;;;;;;3.67;2.15;;;;;;;20.20;86.40;94919.50;5036775;28;20033;-92
2022/07/20 03:42:42;;;;;;;3.17;1.92;;;;;;;20.11;84.55;94913.41;5036973;28;20025;-90
2022/07/20 03:45:08;;;;;;;7.15;2.22;;;;;;;20.19;84.76;94913.38;5035603;28;20032;-91
2022/07/20 03:47:33;;;;;;;3.25;2.17;;;;;;;20.23;85.42;94915.41;5035551;28;20029;-92
2022/07/20 03:49:59;;;;;;;3.42;2.00;;;;;;;20.06;87.17;94923.09;5035630;28;20099;-91
2022/07/20 03:52:25;;;;;;;3.88;2.13;;;;;;;19.89;89.25;94918.53;5035560;28;20037;-91
2022/07/20 03:54:50;;;;;;;4.63;2.30;;;;;;;19.89;88.16;94921.19;5036535;28;20040;-91
2022/07/20 03:57:16;;;;;;;4.63;2.17;;;;;;;19.81;88.63;94918.53;5035590;28;20025;-93
2022/07/20 03:59:42;;;;;;;6.53;2.03;;;;;;;19.81;87.85;94915.88;5028073;28;20037;-86
2022/07/20 04:02:19;;;;;;;;;;;;;;;;;;;;;
2022/07/20 04:04:56;;;;;;;;;;;;;;;;;;;;;
2022/07/20 04:07:31;;;;;;;;;;;;;;;;;;;;;
2022/07/20 04:10:16;;;;;;;;;;;;;;;;;;;;;
2022/07/20 04:12:41;;;;;;;5.82;2.40;;;;;;;19.77;88.95;94923.69;5020602;28;20029;-87
2022/07/20 04:15:15;;;;;;;3.20;2.42;;;;;;;19.96;87.78;94930.63;5020427;28;20125;-87
2022/07/20 04:17:41;;;;;;;5.53;2.20;;;;;;;19.88;87.74;94926.84;5019719;28;20080;-87
2022/07/20 04:20:07;;;;;;;3.50;2.20;;;;;;;19.95;86.55;94926.41;5020831;28;20030;-87
2022/07/20 04:22:33;;;;;;;4.95;2.40;;;;;;;19.98;87.73;94925.78;5019564;28;20025;-87
2022/07/20 04:25:24;;;;;;;5.95;2.17;;;;;;;20.04;86.69;94927.97;5020361;28;20450;-88
2022/07/20 04:28:05;;;;;;;;;;;;;;;;;;;;;
2022/07/20 04:30:33;;;;;;;4.70;1.98;;;;;;;20.03;87.23;94926.41;5019505;28;20032;-87
2022/07/20 04:33:08;;;;;;;10.75;2.40;;;;;;;20.02;88.18;94934.69;5020186;28;20112;-87
2022/07/20 04:35:33;;;;;;;4.10;1.92;;;;;;;20.09;85.98;94937.66;5003765;28;20030;-87
2022/07/20 04:38:01;;;;;;;4.28;2.28;;;;;;;20.14;88.78;94940.16;5019027;28;20112;-87
2022/07/20 04:40:26;;;;;;;6.15;2.25;;;;;;;20.17;88.22;94949.41;5020110;28;20109;-87
2022/07/20 04:42:52;;;;;;;8.10;2.08;;;;;;;20.29;90.27;94941.53;5018835;28;20431;-87
2022/07/20 04:45:19;;;;;;;7.68;2.33;;;;;;;20.32;86.92;94943.59;5020110;28;20022;-86
2022/07/20 04:47:45;;;;;;;5.45;2.30;;;;;;;20.39;85.96;94947.63;5018905;28;20026;-87
2022/07/20 04:50:10;;;;;;;3.17;2.17;;;;;;;20.45;87.41;94947.16;5018659;28;20096;-88
2022/07/20 04:52:47;;;;;;;4.68;2.20;;;;;;;20.29;87.63;94949.53;5002859;28;20030;-88
2022/07/20 04:55:12;;;;;;;6.53;2.13;;;;;;;20.29;87.06;94952.19;5003186;28;20026;-89
2022/07/20 04:57:38;;;;;;;6.22;2.17;;;;;;;20.45;85.23;94949.81;5020409;28;20470;-88
2022/07/20 05:00:12;;;;;;;4.10;2.25;;;;;;;20.43;87.03;94946.69;5018785;28;20021;-88
2022/07/20 05:02:37;;;;;;;3.97;2.42;;;;;;;20.50;94.32;94948.88;5003555;28;20050;-89
2022/07/20 05:05:06;;;;;;;2.58;2.05;;;;;;;20.59;90.85;94941.66;5018342;28;20061;-88
2022/07/20 05:07:38;;;;;;;6.53;2.03;;;;;;;20.68;94.89;94936.31;5002330;28;20424;-88
2022/07/20 05:10:04;;;;;;;3.50;2.05;;;;;;;20.86;93.25;94936.28;5018540;28;20025;-87
2022/07/20 05:12:32;;;;;;;5.78;1.88;;;;;;;20.82;93.12;94941.47;5019464;28;20029;-87
2022/07/20 05:14:57;;;;;;;7.38;2.30;;;;;;;20.76;94.57;94946.13;5018429;28;20440;-87
2022/07/20 05:17:28;;;;;;;2.88;2.28;;;;;;;20.64;100.00;94948.69;5002421;28;20029;-87
2022/07/20 05:19:57;;;;;;;4.57;2.30;;;;;;;20.76;93.81;94946.13;5019474;28;20030;-87
2022/07/20 05:22:26;;;;;;;3.70;2.28;;;;;;;20.94;90.37;94946.09;5019623;28;20338;-87
2022/07/20 05:24:59;;;;;;;5.30;2.22;;;;;;;21.24;96.86;94942.69;5018163;28;20228;-87
2022/07/20 05:27:27;;;;;;;5.13;2.13;;;;;;;21.08;97.78;94945.91;5018514;28;20442;-87
2022/07/20 05:30:00;;;;;;;5.20;2.05;;;;;;;21.43;99.96;94948.38;5019221;28;20423;-88
2022/07/20 05:32:36;;;;;;;;;;;;;;;21.57;98.28;94947.38;5018486;28;20075;-88
2022/07/20 05:35:11;;;;;;;6.32;2.30;;;;;;;21.73;96.17;94948.41;5017977;28;19917;-87
2022/07/20 05:37:39;;;;;;;5.60;1.77;;;;;;;21.77;96.39;94958.44;5017882;28;20431;-87
2022/07/20 05:40:07;;;;;;;4.32;2.08;;;;;;;22.03;89.99;94968.91;5018065;28;20022;-87
2022/07/20 05:42:32;;;;;;;6.05;2.10;;;;;;;22.12;86.82;94966.94;5002001;28;20462;-87
2022/07/20 05:45:08;;;;;;;;;;;;;;;;;;;;;
2022/07/20 05:47:33;;;;;;;3.40;1.80;;;;;;;22.44;85.78;94966.50;5029880;28;20024;-87
2022/07/20 05:50:07;;;;;;;2.60;1.95;;;;;;;22.51;83.30;94971.34;5032031;28;20112;-87
2022/07/20 05:52:37;;;;;;;4.90;1.65;;;;;;;22.61;80.86;94972.84;5020722;28;20029;-86
2022/07/20 05:55:16;;;;;;;;;;;;;;;;;;;;;
2022/07/20 05:57:55;;;;;;;;;;;;;;;;;;;;;
2022/07/20 06:00:23;;;;;;;3.88;1.70;;;;;;;23.01;80.65;94970.34;5036999;28;20021;-86
2022/07/20 06:02:48;;;;;;;4.63;2.00;;;;;;;23.21;80.18;94972.47;5029620;28;20060;-86
2022/07/20 06:05:14;;;;;;;5.22;2.30;;;;;;;23.17;80.74;94969.69;5018216;28;20424;-86
2022/07/20 06:07:39;;;;;;;4.28;2.20;;;;;;;23.43;80.92;94968.63;5018317;28;20320;-85
2022/07/20 06:10:05;;;;;;;2.95;2.00;;;;;;;23.26;85.05;94961.56;5018466;28;20080;-86
2022/07/20 06:12:34;;;;;;;6.00;2.22;;;;;;;23.62;80.16;94953.88;5017512;28;20128;-84
2022/07/20 06:14:59;;;;;;;2.92;1.70;;;;;;;23.78;77.60;94953.97;5017992;28;20069;-84
2022/07/20 06:17:35;;;;;;;4.20;1.95;;;;;;;23.91;73.60;94955.50;5017136;28;20435;-84
2022/07/20 06:20:09;;;;;;;3.95;2.00;;;;;;;23.91;77.15;94962.75;5016945;28;20026;-85
2022/07/20 06:22:36;;;;;;;4.45;1.98;;;;;;;24.07;76.30;94960.19;5017904;28;20072;-85
2022/07/20 06:25:03;;;;;;;6.20;2.03;;;;;;;23.93;79.13;94963.97;5017798;28;20454;-85
2022/07/20 06:27:28;;;;;;;4.60;2.22;;;;;;;24.18;79.86;94960.47;5017843;28;20032;-84
2022/07/20 06:29:54;;;;;;;4.28;2.28;;;;;;;24.09;74.13;94969.41;5017891;28;20026;-85
2022/07/20 06:32:19;;;;;;;4.40;2.47;;;;;;;24.10;76.07;94967.53;5016612;28;20025;-84
2022/07/20 06:34:45;;;;;;;3.75;2.53;;;;;;;24.29;69.76;94973.03;5017531;28;20424;-84
2022/07/20 06:37:11;;;;;;;4.43;2.40;;;;;;;24.42;69.36;94976.44;5017726;28;20037;-85
2022/07/20 06:39:36;;;;;;;7.70;2.25;;;;;;;24.59;69.35;94965.75;5016599;28;20033;-84
2022/07/20 06:42:02;;;;;;;27.92;2.60;;;;;;;24.65;69.88;94967.84;5017635;28;20096;-84
2022/07/20 06:44:27;;;;;;;4.18;2.10;;;;;;;24.73;72.94;94962.69;5017633;28;20435;-84
2022/07/20 06:46:52;;;;;;;2.65;2.17;;;;;;;24.97;70.37;94969.81;5016926;28;20026;-84
2022/07/20 06:49:18;;;;;;;3.42;1.85;;;;;;;24.95;75.41;94964.78;5016338;28;20443;-85
2022/07/20 06:51:43;;;;;;;2.78;1.60;;;;;;;25.09;68.70;94974.31;5016328;28;20073;-85
2022/07/20 06:54:09;;;;;;;3.30;2.13;;;;;;;24.97;70.62;94980.53;5016219;28;20447;-84
2022/07/20 06:56:34;;;;;;;7.93;2.05;;;;;;;25.20;72.33;94974.59;5000041;28;20034;-85
2022/07/20 06:59:02;;;;;;;4.80;2.00;;;;;;;25.37;70.52;94976.09;5016231;28;20030;-85
2022/07/20 07:01:27;;;;;;;5.35;2.00;;;;;;;25.13;72.69;94975.94;5017278;28;20486;-84
2022/07/20 07:03:53;;;;;;;4.60;2.13;;;;;;;25.55;69.40;94980.03;5017243;28;20022;-84
2022/07/20 07:06:18;;;;;;;3.28;2.00;;;;;;;25.67;68.35;94981.03;4999877;28;20029;-84
2022/07/20 07:08:44;;;;;;;2.88;2.00;;;;;;;25.83;66.29;94986.38;5017263;28;20025;-84
2022/07/20 07:11:09;;;;;;;2.88;1.90;;;;;;;25.78;64.13;94982.03;4999854;28;20018;-84
2022/07/20 07:13:35;;;;;;;6.60;2.30;;;;;;;26.03;64.34;94981.81;5015922;28;20022;-84
2022/07/20 07:16:00;;;;;;;9.75;2.10;;;;;;;26.10;62.90;94981.94;5015909;28;20080;-85
2022/07/20 07:18:25;;;;;;;8.90;2.20;;;;;;;25.90;65.78;94986.53;5017077;28;20028;-84
2022/07/20 07:20:51;;;;;;;4.97;2.15;;;;;;;25.91;61.58;94984.63;5015892;28;20032;-85
2022/07/20 07:23:16;;;;;;;11.52;1.90;;;;;;;26.12;68.18;94984.28;5015760;28;20062;-85
2022/07/20 07:25:42;;;;;;;3.42;2.05;;;;;;;26.32;60.70;94987.78;4999726;28;20018;-84
2022/07/20 07:28:07;;;;;;;6.00;1.40;;;;;;;26.51;49.37;94984.31;4999652;28;20065;-85
2022/07/20 07:30:33;;;;;;;4.40;1.80;;;;;;;26.47;55.68;94985.38;5015844;28;20022;-84
2022/07/20 07:32:59;;;;;;;2.25;1.23;;;;;;;26.60;45.56;94991.34;4999261;28;20032;-84
2022/07/20 07:35:24;;;;;;;3.42;1.20;;;;;;;26.80;43.82;94984.84;5015726;28;20079;-84
2022/07/20 07:37:50;;;;;;;6.05;1.38;;;;;;;26.92;44.88;94983.16;5015138;28;20026;-85
2022/07/20 07:40:15;;;;;;;3.40;1.42;;;;;;;26.95;41.08;94985.13;5017134;28;20033;-86
2022/07/20 07:42:41;;;;;;;1.90;1.10;;;;;;;27.16;40.78;94982.00;5015838;28;20057;-84
2022/07/20 07:45:07;;;;;;;2.70;1.30;;;;;;;27.23;38.52;94984.03;5015700;28;20481;-86
2022/07/20 07:47:34;;;;;;;2.85;1.15;;;;;;;27.09;39.25;94979.97;5016751;28;20030;-85
2022/07/20 07:49:59;;;;;;;2.70;1.33;;;;;;;27.38;38.13;94980.44;5016697;28;20104;-85
2022/07/20 07:52:25;;;;;;;2.72;1.40;;;;;;;27.50;38.00;94976.75;4999113;28;20403;-84
2022/07/20 07:54:50;;;;;;;2.85;1.33;;;;;;;27.56;38.67;94973.78;5015384;28;20336;-85
2022/07/20 07:57:16;;;;;;;6.25;1.30;;;;;;;27.65;37.93;94977.00;5015549;28;20141;-85
2022/07/20 07:59:42;;;;;;;2.70;1.10;;;;;;;27.73;37.87;94975.97;5015667;28;20049;-86
2022/07/20 08:02:10;;;;;;;6.45;1.25;;;;;;;27.83;37.99;94987.22;5015489;28;20493;-85
2022/07/20 08:04:36;;;;;;;2.85;1.17;;;;;;;27.84;37.02;94978.03;4999027;28;20037;-85
2022/07/20 08:07:01;;;;;;;1.17;0.93;;;;;;;27.66;37.69;94971.25;5016660;28;20026;-85
2022/07/20 08:09:29;;;;;;;3.05;1.05;;;;;;;27.87;37.34;94972.66;5015535;28;20081;-85
2022/07/20 08:11:55;;;;;;;2.65;1.10;;;;;;;28.03;37.25;94974.41;5015451;28;20347;-85
2022/07/20 08:14:21;;;;;;;2.72;1.10;;;;;;;28.02;37.94;94984.41;5015204;28;20081;-86
2022/07/20 08:16:46;;;;;;;6.55;1.55;;;;;;;28.32;38.66;94982.88;5015317;28;20022;-86
2022/07/20 08:19:14;;;;;;;1.95;1.38;;;;;;;28.29;36.99;94975.53;5016484;28;20439;-85
2022/07/20 08:21:39;;;;;;;1.60;1.08;;;;;;;28.44;36.66;94976.47;5015560;28;20021;-85
2022/07/20 08:24:05;;;;;;;4.85;1.40;;;;;;;28.34;35.76;94977.91;5015189;28;20043;-85
2022/07/20 08:26:32;;;;;;;3.88;2.13;;;;;;;27.98;35.55;94970.13;4999283;28;20023;-85
2022/07/20 08:28:57;;;;;;;2.83;1.20;;;;;;;28.28;35.81;94973.97;5015271;28;20026;-86
2022/07/20 08:31:23;;;;;;;2.55;1.10;;;;;;;28.36;35.48;94971.00;5016413;28;20026;-86
2022/07/20 08:33:48;;;;;;;2.85;1.25;;;;;;;28.52;34.68;94966.56;5015031;28;20036;-86
2022/07/20 08:36:14;;;;;;;1.77;1.10;;;;;;;28.54;34.47;94975.03;5015387;28;20445;-85
2022/07/20 08:38:39;;;;;;;8.00;1.20;;;;;;;28.72;34.21;94975.22;5015301;28;20029;-85
2022/07/20 08:41:10;;;;;;;3.08;1.27;;;;;;;28.89;33.97;94974.66;5015176;28;20351;-86
2022/07/20 08:43:36;;;;;;;2.60;1.10;;;;;;;29.08;34.47;94967.47;4999053;28;20033;-86
2022/07/20 08:46:02;;;;;;;2.58;1.13;;;;;;;29.29;34.17;94972.28;5016223;28;20026;-86
2022/07/20 08:48:27;;;;;;;3.10;1.40;;;;;;;29.00;33.41;94973.97;4999172;28;20316;-85
2022/07/20 08:50:53;;;;;;;2.85;1.50;;;;;;;28.74;33.93;94964.84;5018140;28;20033;-86
2022/07/20 08:53:19;;;;;;;1.83;1.23;;;;;;;29.05;35.12;94968.22;5019933;28;20080;-85
2022/07/20 08:55:46;;;;;;;4.70;1.25;;;;;;;29.16;33.88;94963.69;5018423;28;20061;-86
2022/07/20 08:58:11;;;;;;;6.80;1.48;;;;;;;29.20;33.88;94967.19;5018399;28;20336;-86
2022/07/20 09:00:40;;;;;;;8.00;1.38;;;;;;;28.79;33.51;94959.91;5018420;28;20033;-87
2022/07/20 09:03:07;;;;;;;3.53;1.50;;;;;;;28.83;34.49;94962.63;5002774;28;20391;-85
2022/07/20 09:05:34;;;;;;;5.35;1.70;;;;;;;29.03;33.96;94968.59;5002441;28;20022;-84
2022/07/20 09:08:00;;;;;;;7.00;1.40;;;;;;;29.22;34.69;94972.22;5019480;28;20026;-83
2022/07/20 09:10:32;;;;;;;4.00;1.27;;;;;;;29.43;35.08;94974.34;5002146;28;20038;-84
2022/07/20 09:13:08;;;;;;;6.28;1.60;;;;;;;29.37;34.69;94975.78;5018119;28;20032;-85
2022/07/20 09:15:53;;;;;;;4.07;1.20;;;;;;;29.40;35.51;94971.59;5001820;28;20483;-84
2022/07/20 09:18:25;;;;;;;5.57;1.42;;;;;;;29.57;34.87;94970.97;5018110;28;20505;-84
2022/07/20 09:20:51;;;;;;;2.97;1.05;;;;;;;29.84;34.96;94975.34;5019184;28;20079;-84
2022/07/20 09:23:20;;;;;;;6.30;1.50;;;;;;;29.36;33.66;94976.94;5018219;28;20049;-84
2022/07/20 09:26:03;;;;;;;2.25;1.33;;;;;;;29.54;34.03;94970.94;5001888;28;20025;-84
2022/07/20 09:28:48;;;;;;;4.13;1.60;;;;;;;29.71;35.74;94964.88;5017955;28;20113;-84
2022/07/20 09:31:14;;;;;;;6.13;1.48;;;;;;;29.76;36.30;94963.72;5014954;28;20466;-87
2022/07/20 09:33:40;;;;;;;2.10;1.55;;;;;;;29.63;33.94;94963.28;5018960;28;20026;-84
2022/07/20 09:36:06;;;;;;;3.67;1.55;;;;;;;29.84;34.22;94965.31;5017418;28;20335;-84
2022/07/20 09:38:35;;;;;;;2.70;1.50;;;;;;;29.97;34.77;94956.91;5017424;28;20022;-85
2022/07/20 09:41:20;;;;;;;5.65;1.60;;;;;;;29.74;33.82;94956.03;5017578;28;20029;-84
2022/07/20 09:43:50;;;;;;;7.03;1.60;;;;;;;29.77;33.00;94959.91;5017467;28;20026;-85
2022/07/20 09:46:21;;;;;;;2.50;1.35;;;;;;;29.86;33.94;94956.84;5018049;28;20029;-84
2022/07/20 09:48:51;;;;;;;7.43;1.88;;;;;;;29.86;33.44;94951.47;5017813;28;20025;-86
2022/07/20 09:51:29;;;;;;;3.60;1.50;;;;;;;29.83;34.12;94952.19;5017623;28;20033;-84
2022/07/20 09:53:57;;;;;;;5.57;1.67;;;;;;;29.86;32.74;94948.75;5017536;28;20116;-84
2022/07/20 09:56:23;;;;;;;4.80;1.80;;;;;;;30.02;33.50;94943.81;5017890;28;20029;-85
2022/07/20 09:58:51;;;;;;;8.70;1.88;;;;;;;29.95;32.96;94948.41;5001143;28;20343;-85
2022/07/20 10:01:23;;;;;;;2.92;1.20;;;;;;;30.23;32.87;94945.06;5017158;28;20026;-85
2022/07/20 10:03:50;;;;;;;3.05;1.55;;;;;;;30.44;32.67;94941.66;5017091;28;20454;-84
2022/07/20 10:06:17;;;;;;;4.32;1.60;;;;;;;30.37;33.28;94932.75;5028570;28;20045;-85
2022/07/20 10:08:43;;;;;;;1.88;1.35;;;;;;;30.76;33.96;94942.91;5009432;28;20492;-86
2022/07/20 10:11:09;;;;;;;4.63;1.80;;;;;;;30.52;32.35;94944.38;5022404;28;20108;-86
2022/07/20 10:13:35;;;;;;;3.25;1.55;;;;;;;30.43;32.00;94934.69;5019517;28;20026;-86
2022/07/20 10:16:06;;;;;;;5.75;1.90;;;;;;;30.31;32.36;94929.66;5036528;28;20052;-84
2022/07/20 10:18:32;;;;;;;7.10;1.42;;;;;;;30.67;33.41;94931.69;5015776;28;20032;-83
2022/07/20 10:20:57;;;;;;;5.05;1.85;;;;;;;30.85;33.59;94932.50;5008675;28;20427;-84
2022/07/20 10:23:23;;;;;;;2.72;1.80;;;;;;;30.88;32.32;94936.34;5016799;28;20124;-85
2022/07/20 10:25:49;;;;;;;4.70;1.80;;;;;;;31.06;32.65;94944.47;5016865;28;20355;-84
2022/07/20 10:28:27;;;;;;;4.15;1.85;;;;;;;30.59;31.55;94938.97;5016992;28;20026;-85
2022/07/20 10:30:53;;;;;;;2.75;1.77;;;;;;;31.10;32.74;94952.59;5016705;28;20168;-85
2022/07/20 10:33:20;;;;;;;7.10;1.92;;;;;;;31.47;32.74;94948.72;5016625;28;20056;-84
2022/07/20 10:35:47;;;;;;;8.52;1.70;;;;;;;30.99;31.74;94945.25;5017146;28;20427;-85
2022/07/20 10:38:17;;;;;;;5.60;1.63;;;;;;;31.35;31.55;94944.50;5017079;28;20026;-84
2022/07/20 10:44:20;;;;;;;4.05;1.90;;;;;;;31.57;32.36;94941.75;5016678;28;20037;-85
2022/07/20 10:46:47;;;;;;;9.50;2.10;;;;;;;31.40;31.98;94932.50;5034088;28;20037;-84
2022/07/20 10:49:28;;;;;;;5.60;2.15;;;;;;;31.48;30.04;94938.69;5031037;28;20025;-86
2022/07/20 10:52:26;;;;;;;3.33;2.20;;;;;;;31.31;31.02;94947.19;5036139;28;20029;-86
2022/07/20 10:54:52;;;;;;;5.15;2.05;;;;;;;30.97;30.94;94931.34;5035550;28;20438;-85
2022/07/20 10:57:20;;;;;;;6.53;2.30;;;;;;;31.07;31.19;94927.06;5037185;28;20104;-86
2022/07/20 10:59:45;;;;;;;5.15;2.10;;;;;;;31.28;31.59;94925.56;5036321;28;20078;-86
2022/07/20 11:02:11;;;;;;;5.78;1.75;;;;;;;31.54;31.95;94931.69;5035987;28;20096;-87
2022/07/20 11:04:43;;;;;;;4.13;1.70;;;;;;;31.82;31.37;94919.28;5035804;28;20025;-87
2022/07/20 11:07:31;;;;;;;5.05;2.22;;;;;;;31.49;31.43;94921.28;5035996;28;20433;-85
2022/07/20 11:09:58;;;;;;;5.65;1.98;;;;;;;31.72;31.26;94913.47;5035908;28;20021;-85
2022/07/20 11:12:32;;;;;;;5.10;2.20;;;;;;;31.59;31.93;94913.13;5019193;28;20022;-86
2022/07/20 11:14:58;;;;;;;10.57;2.45;;;;;;;31.88;32.48;94906.88;5019227;28;20029;-85
2022/07/20 11:17:28;;;;;;;4.95;1.95;;;;;;;31.97;31.22;94899.09;5036784;28;20029;-86
2022/07/20 11:19:54;;;;;;;2.92;1.60;;;;;;;31.84;30.91;94900.69;5035701;28;20439;-88
2022/07/20 11:22:20;;;;;;;3.70;1.80;;;;;;;32.22;31.53;94902.88;5019820;28;20194;-86
2022/07/20 11:24:53;;;;;;;5.07;2.13;;;;;;;32.32;31.32;94901.25;5035144;28;20112;-86
2022/07/20 11:27:18;;;;;;;4.15;2.08;;;;;;;32.30;30.19;94886.16;5033302;28;20060;-86
2022/07/20 11:29:46;;;;;;;4.30;1.95;;;;;;;32.31;30.67;94878.78;5019280;28;20061;-87
2022/07/20 11:32:12;;;;;;;7.78;2.47;;;;;;;32.27;30.45;94886.94;5035764;28;20025;-86
2022/07/20 11:34:52;;;;;;;7.00;1.88;;;;;;;32.36;30.97;94886.53;5035242;28;20031;-87
2022/07/20 11:37:19;;;;;;;4.53;1.90;;;;;;;32.72;31.22;94880.88;5036869;28;20036;-86
2022/07/20 11:39:45;;;;;;;4.95;2.03;;;;;;;32.52;30.34;94885.28;5035445;28;20035;-87
2022/07/20 11:42:24;;;;;;;6.55;2.30;;;;;;;32.51;30.64;94876.38;5016352;28;20109;-87
2022/07/20 11:45:02;;;;;;;4.13;2.10;;;;;;;32.01;31.53;94882.81;5016988;28;20467;-87
2022/07/20 11:47:27;;;;;;;6.13;2.10;;;;;;;32.04;31.71;94875.84;5015905;28;20447;-86
2022/07/20 11:50:09;;;;;;;5.10;1.90;;;;;;;32.63;31.15;94871.66;5015634;28;20025;-86
2022/07/20 11:52:42;;;;;;;3.33;1.67;;;;;;;32.62;31.14;94870.84;4999051;28;20176;-87
2022/07/20 11:55:10;;;;;;;6.35;2.05;;;;;;;32.52;31.15;94875.19;4999358;28;20030;-87
2022/07/20 11:57:36;;;;;;;4.72;2.17;;;;;;;32.19;30.15;94874.59;5015507;28;20103;-86